createdAt,value
2023-09-09T00:00:08.592Z,21.08
2023-09-09T00:03:13.971Z,21.80
2023-09-09T00:06:15.435Z,23.73
2023-09-09T00:09:17.006Z,23.45
2023-09-09T00:12:17.911Z,21.83
2023-09-09T00:15:18.986Z,23.80
2023-09-09T00:18:20.150Z,22.17
2023-09-09T00:21:22.128Z,21.48
2023-09-09T00:24:23.513Z,22.33
2023-09-09T00:27:24.993Z,22.65
2023-09-09T00:30:25.881Z,22.83
2023-09-09T00:33:26.958Z,24.38
2023-09-09T00:36:28.181Z,26.10
2023-09-09T00:39:29.420Z,26.38
2023-09-09T00:42:30.700Z,27.83
2023-09-09T00:45:32.501Z,27.35
2023-09-09T00:48:33.938Z,30.27
2023-09-09T00:51:38.923Z,30.73
2023-09-09T00:54:40.162Z,29.85
2023-09-09T00:57:41.641Z,27.00
2023-09-09T01:00:42.805Z,30.45
2023-09-09T01:03:44.392Z,32.10
2023-09-09T01:06:46.485Z,31.08
2023-09-09T01:09:47.568Z,30.02
2023-09-09T01:12:49.132Z,33.50
2023-09-09T01:15:51.028Z,34.28
2023-09-09T01:18:52.159Z,33.95
2023-09-09T01:22:02.111Z,30.05
2023-09-09T01:25:08.625Z,31.38
2023-09-09T01:28:09.684Z,32.67
2023-09-09T01:31:11.446Z,36.40
2023-09-09T01:34:12.651Z,32.30
2023-09-09T01:37:13.987Z,31.75
2023-09-09T01:40:15.764Z,30.55
2023-09-09T01:43:16.902Z,30.25
2023-09-09T01:46:18.414Z,29.95
2023-09-09T01:49:20.025Z,31.30
2023-09-09T01:52:21.751Z,26.55
2023-09-09T01:55:22.878Z,30.52
2023-09-09T01:58:24.197Z,29.77
2023-09-09T02:01:25.677Z,31.08
2023-09-09T02:04:27.013Z,28.67
2023-09-09T02:07:28.767Z,29.58
2023-09-09T02:10:29.707Z,33.10
2023-09-09T02:13:31.089Z,35.28
2023-09-09T02:16:33.529Z,34.42
2023-09-09T02:19:35.103Z,34.42
2023-09-09T02:22:36.686Z,33.17
2023-09-09T02:25:39.041Z,34.53
2023-09-09T02:28:40.363Z,36.38
2023-09-09T02:31:41.368Z,31.27
2023-09-09T02:34:42.577Z,29.35
2023-09-09T02:37:43.796Z,33.92
2023-09-09T02:40:45.224Z,33.53
2023-09-09T02:43:47.563Z,35.33
2023-09-09T02:46:48.861Z,37.05
2023-09-09T02:49:53.101Z,37.08
2023-09-09T02:52:56.204Z,34.15
2023-09-09T02:55:57.749Z,30.92
2023-09-09T02:58:58.852Z,36.85
2023-09-09T03:02:04.526Z,33.25
2023-09-09T03:05:06.678Z,21.90
2023-09-09T03:08:08.455Z,36.50
2023-09-09T03:11:09.802Z,41.45
2023-09-09T03:14:11.440Z,36.05
2023-09-09T03:17:12.900Z,30.38
2023-09-09T03:20:14.885Z,27.35
2023-09-09T03:23:15.993Z,34.65
2023-09-09T03:26:24.064Z,36.60
2023-09-09T03:29:25.642Z,34.65
2023-09-09T03:32:27.649Z,36.88
2023-09-09T03:35:29.027Z,37.13
2023-09-09T03:38:30.640Z,35.70
2023-09-09T03:41:32.045Z,42.10
2023-09-09T03:44:33.326Z,41.67
2023-09-09T03:47:34.713Z,42.90
2023-09-09T03:50:36.231Z,44.10
2023-09-09T03:53:38.305Z,41.00
2023-09-09T03:56:39.449Z,37.05
2023-09-09T03:59:41.326Z,35.90
2023-09-09T04:02:42.773Z,41.05
2023-09-09T04:05:48.508Z,40.17
2023-09-09T04:08:56.652Z,48.50
2023-09-09T04:11:58.253Z,44.90
2023-09-09T04:14:59.864Z,54.83
2023-09-09T04:18:01.191Z,58.05
2023-09-09T04:21:02.633Z,37.88
2023-09-09T04:24:04.322Z,43.15
2023-09-09T04:27:05.832Z,42.92
2023-09-09T04:30:08.052Z,42.90
2023-09-09T04:33:14.631Z,82.05
2023-09-09T04:36:18.857Z,52.22
2023-09-09T04:39:20.101Z,48.95
2023-09-09T04:42:22.714Z,50.30
2023-09-09T04:45:24.788Z,41.42
2023-09-09T04:48:25.829Z,49.42
2023-09-09T04:51:27.443Z,49.97
2023-09-09T04:54:28.720Z,78.30
2023-09-09T04:57:30.174Z,54.28
2023-09-09T05:00:31.456Z,53.55
2023-09-09T05:03:32.524Z,47.15
2023-09-09T05:06:33.779Z,39.53
2023-09-09T05:09:35.282Z,37.88
2023-09-09T05:12:38.303Z,44.80
2023-09-09T05:15:40.648Z,52.50
2023-09-09T05:18:41.626Z,50.72
2023-09-09T05:21:43.090Z,59.58
2023-09-09T05:24:44.435Z,51.90
2023-09-09T05:27:46.429Z,54.72
2023-09-09T05:30:47.817Z,54.05
2023-09-09T05:33:48.942Z,49.28
2023-09-09T05:36:50.326Z,43.03
2023-09-09T05:39:51.718Z,41.92
2023-09-09T05:42:52.956Z,37.55
2023-09-09T05:46:01.342Z,39.22
2023-09-09T05:49:03.485Z,42.50
2023-09-09T05:52:05.380Z,43.80
2023-09-09T05:55:07.131Z,44.75
2023-09-09T05:58:08.704Z,40.50
2023-09-09T06:01:10.647Z,39.25
2023-09-09T06:04:12.004Z,38.35
2023-09-09T06:07:13.611Z,38.45
2023-09-09T06:10:14.496Z,38.70
2023-09-09T06:13:15.955Z,36.05
2023-09-09T06:16:17.413Z,33.35
2023-09-09T06:19:18.826Z,30.58
2023-09-09T06:22:20.256Z,30.20
2023-09-09T06:25:21.876Z,31.45
2023-09-09T06:28:26.170Z,29.85
2023-09-09T06:31:27.949Z,28.05
2023-09-09T06:34:28.928Z,27.17
2023-09-09T06:37:30.698Z,27.23
2023-09-09T06:40:33.296Z,25.30
2023-09-09T06:43:34.707Z,25.23
2023-09-09T06:46:36.245Z,25.00
2023-09-09T06:49:37.381Z,25.35
2023-09-09T06:52:40.016Z,25.55
2023-09-09T06:55:44.821Z,25.58
2023-09-09T06:58:45.956Z,25.30
2023-09-09T07:01:46.869Z,24.33
2023-09-09T07:04:48.354Z,24.35
2023-09-09T07:07:49.534Z,23.50
2023-09-09T07:10:52.793Z,23.73
2023-09-09T07:13:53.942Z,23.48
2023-09-09T07:16:55.127Z,22.52
2023-09-09T07:19:56.565Z,24.40
2023-09-09T07:22:57.454Z,25.75
2023-09-09T07:25:58.858Z,25.27
2023-09-09T07:29:00.276Z,23.80
2023-09-09T07:32:01.140Z,23.63
2023-09-09T07:35:04.064Z,23.48
2023-09-09T07:38:08.866Z,23.15
2023-09-09T07:41:09.797Z,24.15
2023-09-09T07:44:11.202Z,23.35
2023-09-09T07:47:13.379Z,24.80
2023-09-09T07:50:14.712Z,22.52
2023-09-09T07:53:15.824Z,21.23
2023-09-09T07:56:17.124Z,21.77
2023-09-09T07:59:18.149Z,22.67
2023-09-09T08:02:19.191Z,21.55
2023-09-09T08:05:20.113Z,19.83
2023-09-09T08:08:20.968Z,20.60
2023-09-09T08:11:21.752Z,19.58
2023-09-09T08:14:22.776Z,18.48
2023-09-09T08:17:23.938Z,17.90
2023-09-09T08:20:25.178Z,19.08
2023-09-09T08:23:26.273Z,19.23
2023-09-09T08:26:27.692Z,19.65
2023-09-09T08:29:28.813Z,17.88
2023-09-09T08:32:30.394Z,19.15
2023-09-09T08:35:32.622Z,18.58
2023-09-09T08:38:33.833Z,17.52
2023-09-09T08:42:06.204Z,19.55
2023-09-09T08:45:19.888Z,18.98
2023-09-09T08:48:24.787Z,19.10
2023-09-09T08:52:04.857Z,18.58
2023-09-09T08:55:06.784Z,18.88
2023-09-09T08:58:08.437Z,19.63
2023-09-09T09:01:12.011Z,18.05
2023-09-09T09:04:17.173Z,17.80
2023-09-09T09:07:18.630Z,18.45
2023-09-09T09:10:21.876Z,16.90
2023-09-09T09:13:23.097Z,16.65
2023-09-09T09:16:25.116Z,16.63
2023-09-09T09:19:32.728Z,16.55
2023-09-09T09:22:34.228Z,17.25
2023-09-09T09:25:47.727Z,17.60
2023-09-09T09:28:49.033Z,17.38
2023-09-09T09:31:55.338Z,18.13
2023-09-09T09:34:56.215Z,17.73
2023-09-09T09:38:03.725Z,16.77
2023-09-09T09:41:05.325Z,16.90
2023-09-09T09:44:18.408Z,17.33
2023-09-09T09:47:19.904Z,16.08
2023-09-09T09:50:32.446Z,16.17
2023-09-09T09:53:39.773Z,15.73
2023-09-09T09:56:41.910Z,14.65
2023-09-09T09:59:44.705Z,14.82
2023-09-09T10:02:53.165Z,13.20
2023-09-09T10:05:56.365Z,13.80
2023-09-09T10:09:24.751Z,13.13
2023-09-09T10:12:48.035Z,14.10
2023-09-09T10:15:51.159Z,14.40
2023-09-09T10:18:53.823Z,14.95
2023-09-09T10:21:57.778Z,12.82
2023-09-09T10:25:00.629Z,12.85
2023-09-09T10:28:03.521Z,13.02
2023-09-09T10:31:07.151Z,13.75
2023-09-09T10:34:10.742Z,13.40
2023-09-09T10:37:15.553Z,12.30
2023-09-09T10:40:18.609Z,11.18
2023-09-09T10:43:19.625Z,12.93
2023-09-09T10:46:36.478Z,12.13
2023-09-09T10:49:37.506Z,12.02
2023-09-09T10:52:38.961Z,11.73
2023-09-09T10:55:39.895Z,11.73
2023-09-09T10:58:41.366Z,11.45
2023-09-09T11:01:43.707Z,11.45
2023-09-09T11:05:14.403Z,10.88
2023-09-09T11:08:32.803Z,11.70
2023-09-09T11:11:36.513Z,10.30
2023-09-09T11:14:37.561Z,11.23
2023-09-09T11:17:46.026Z,10.07
2023-09-09T11:20:47.650Z,9.73
2023-09-09T11:23:49.939Z,10.55
2023-09-09T11:26:57.088Z,9.38
2023-09-09T11:29:58.138Z,9.10
2023-09-09T11:32:59.176Z,8.55
2023-09-09T11:36:00.437Z,9.50
2023-09-09T11:39:02.490Z,9.40
2023-09-09T11:42:04.211Z,8.40
2023-09-09T11:45:19.323Z,8.15
2023-09-09T11:48:21.448Z,8.43
2023-09-09T11:51:23.124Z,8.30
2023-09-09T11:54:24.508Z,8.05
2023-09-09T11:57:25.913Z,8.35
2023-09-09T12:00:26.850Z,7.50
2023-09-09T12:03:27.918Z,7.05
2023-09-09T12:06:29.346Z,6.70
2023-09-09T12:09:30.684Z,6.88
2023-09-09T12:12:35.399Z,6.38
2023-09-09T12:15:36.979Z,5.80
2023-09-09T12:18:38.400Z,5.55
2023-09-09T12:21:47.772Z,5.10
2023-09-09T12:24:48.839Z,5.70
2023-09-09T12:27:49.723Z,5.68
2023-09-09T12:30:52.929Z,5.10
2023-09-09T12:33:53.984Z,5.22
2023-09-09T12:37:00.993Z,5.03
2023-09-09T12:40:02.483Z,4.68
2023-09-09T12:43:11.347Z,4.53
2023-09-09T12:46:20.853Z,5.18
2023-09-09T12:49:22.027Z,4.72
2023-09-09T12:52:22.975Z,4.55
2023-09-09T12:55:24.118Z,4.93
2023-09-09T12:58:26.393Z,5.03
2023-09-09T13:01:27.619Z,4.40
2023-09-09T13:04:28.677Z,4.75
2023-09-09T13:07:30.107Z,4.25
2023-09-09T13:10:30.931Z,4.50
2023-09-09T13:13:33.019Z,4.88
2023-09-09T13:16:34.101Z,4.13
2023-09-09T13:19:37.530Z,4.65
2023-09-09T13:22:40.000Z,4.22
2023-09-09T13:25:41.619Z,3.90
2023-09-09T13:28:42.707Z,4.30
2023-09-09T13:31:43.910Z,4.15
2023-09-09T13:34:45.185Z,4.30
2023-09-09T13:37:46.449Z,4.75
2023-09-09T13:40:47.871Z,4.90
2023-09-09T13:43:48.929Z,4.47
2023-09-09T13:46:49.979Z,4.70
2023-09-09T13:49:51.080Z,4.38
2023-09-09T13:52:52.524Z,4.50
2023-09-09T13:55:53.517Z,4.75
2023-09-09T13:58:55.174Z,4.60
2023-09-09T14:01:56.335Z,4.28
2023-09-09T14:04:57.237Z,5.18
2023-09-09T14:07:58.273Z,4.53
2023-09-09T14:10:59.686Z,4.07
2023-09-09T14:14:01.529Z,4.13
2023-09-09T14:17:02.936Z,4.15
2023-09-09T14:20:04.658Z,4.35
2023-09-09T14:23:06.228Z,4.72
2023-09-09T14:26:07.064Z,4.55
2023-09-09T14:29:07.905Z,5.03
2023-09-09T14:32:09.421Z,4.95
2023-09-09T14:35:10.483Z,5.32
2023-09-09T14:38:11.939Z,5.38
2023-09-09T14:41:14.177Z,5.07
2023-09-09T14:44:15.254Z,5.15
2023-09-09T14:47:16.659Z,5.38
2023-09-09T14:50:18.174Z,4.95
2023-09-09T14:53:19.316Z,5.15
2023-09-09T14:56:20.320Z,4.47
2023-09-09T14:59:21.415Z,4.97
2023-09-09T15:02:22.856Z,5.93
2023-09-09T15:05:23.753Z,5.28
2023-09-09T15:08:25.213Z,5.28
2023-09-09T15:11:26.146Z,5.30
2023-09-09T15:14:27.061Z,5.60
2023-09-09T15:17:28.482Z,4.72
2023-09-09T15:20:29.677Z,5.00
2023-09-09T15:23:31.546Z,4.57
2023-09-09T15:26:33.087Z,4.97
2023-09-09T15:29:34.141Z,5.45
2023-09-09T15:32:35.485Z,5.03
2023-09-09T15:35:36.849Z,5.63
2023-09-09T15:38:42.481Z,5.20
2023-09-09T15:41:43.837Z,5.68
2023-09-09T15:44:51.163Z,5.53
2023-09-09T15:47:52.317Z,5.60
2023-09-09T15:50:53.759Z,5.35
2023-09-09T15:53:55.088Z,5.20
2023-09-09T15:56:55.934Z,5.60
2023-09-09T15:59:56.852Z,5.65
2023-09-09T16:02:58.294Z,5.45
2023-09-09T16:06:08.690Z,5.32
2023-09-09T16:09:09.750Z,5.93
2023-09-09T16:12:10.807Z,5.55
2023-09-09T16:15:11.983Z,4.95
2023-09-09T16:18:13.414Z,5.25
2023-09-09T16:21:14.902Z,5.70
2023-09-09T16:24:16.217Z,5.90
2023-09-09T16:27:17.360Z,5.97
2023-09-09T16:30:18.197Z,5.10
2023-09-09T16:33:19.633Z,6.05
2023-09-09T16:36:20.670Z,5.82
2023-09-09T16:39:22.005Z,5.88
2023-09-09T16:42:23.261Z,6.10
2023-09-09T16:45:24.313Z,6.50
2023-09-09T16:48:25.321Z,6.28
2023-09-09T16:51:26.801Z,6.65
2023-09-09T16:54:27.797Z,6.30
2023-09-09T16:57:32.509Z,6.80
2023-09-09T17:00:33.784Z,6.60
2023-09-09T17:03:34.592Z,7.43
2023-09-09T17:06:35.985Z,6.90
2023-09-09T17:09:37.121Z,7.20
2023-09-09T17:12:37.952Z,6.55
2023-09-09T17:15:42.283Z,7.82
2023-09-09T17:18:43.598Z,7.20
2023-09-09T17:21:44.996Z,7.28
2023-09-09T17:24:46.037Z,6.95
2023-09-09T17:27:47.116Z,7.45
2023-09-09T17:30:51.309Z,7.72
2023-09-09T17:33:52.404Z,8.02
2023-09-09T17:36:54.337Z,7.85
2023-09-09T17:39:55.878Z,8.38
2023-09-09T17:42:56.901Z,8.90
2023-09-09T17:45:57.809Z,8.88
2023-09-09T17:49:03.566Z,8.38
2023-09-09T17:52:05.389Z,7.95
2023-09-09T17:55:08.104Z,8.23
2023-09-09T17:58:09.635Z,7.65
2023-09-09T18:01:11.207Z,8.20
2023-09-09T18:04:12.353Z,7.95
2023-09-09T18:07:13.886Z,8.45
2023-09-09T18:10:15.402Z,9.18
2023-09-09T18:13:16.875Z,8.77
2023-09-09T18:16:22.320Z,8.65
2023-09-09T18:19:23.957Z,8.98
2023-09-09T18:22:26.003Z,8.10
2023-09-09T18:25:27.935Z,7.97
2023-09-09T18:28:30.257Z,8.18
2023-09-09T18:31:31.395Z,8.10
2023-09-09T18:34:32.374Z,8.18
2023-09-09T18:37:33.978Z,8.48
2023-09-09T18:40:35.344Z,8.77
2023-09-09T18:43:36.352Z,9.02
2023-09-09T18:46:38.282Z,8.73
2023-09-09T18:49:39.727Z,8.93
2023-09-09T18:52:41.098Z,7.72
2023-09-09T18:55:42.686Z,8.30
2023-09-09T18:58:43.826Z,10.13
2023-09-09T19:01:45.348Z,8.82
2023-09-09T19:04:47.556Z,8.52
2023-09-09T19:07:48.686Z,9.00
2023-09-09T19:10:50.395Z,9.68
2023-09-09T19:13:54.252Z,9.80
2023-09-09T19:16:55.850Z,9.95
2023-09-09T19:20:01.033Z,9.70
2023-09-09T19:23:04.303Z,10.13
2023-09-09T19:26:05.600Z,11.07
2023-09-09T19:29:07.049Z,10.57
2023-09-09T19:32:08.689Z,10.07
2023-09-09T19:35:09.999Z,10.60
2023-09-09T19:38:11.512Z,10.23
2023-09-09T19:41:12.987Z,10.27
2023-09-09T19:44:14.414Z,10.70
2023-09-09T19:47:15.861Z,9.93
2023-09-09T19:50:17.712Z,9.73
2023-09-09T19:53:19.683Z,9.23
2023-09-09T19:56:21.346Z,10.50
2023-09-09T19:59:23.000Z,10.75
2023-09-09T20:02:24.273Z,10.05
2023-09-09T20:05:25.450Z,10.38
2023-09-09T20:08:26.829Z,10.63
2023-09-09T20:11:27.808Z,11.15
2023-09-09T20:14:28.569Z,11.18
2023-09-09T20:17:30.091Z,10.77
2023-09-09T20:20:31.376Z,10.40
2023-09-09T20:23:32.748Z,11.50
2023-09-09T20:26:34.016Z,11.23
2023-09-09T20:29:35.270Z,12.68
2023-09-09T20:32:36.743Z,12.13
2023-09-09T20:35:40.674Z,11.68
2023-09-09T20:38:43.080Z,10.30
2023-09-09T20:41:50.355Z,10.43
2023-09-09T20:47:53.783Z,11.20
2023-09-09T20:50:55.007Z,11.80
2023-09-09T20:53:56.484Z,11.98
2023-09-09T20:56:59.039Z,11.93
2023-09-09T21:00:00.486Z,11.60
2023-09-09T21:03:01.587Z,11.20
2023-09-09T21:06:03.760Z,11.38
2023-09-09T21:09:05.606Z,10.73
2023-09-09T21:12:07.255Z,11.55
2023-09-09T21:15:16.202Z,12.13
2023-09-09T21:18:20.531Z,11.07
2023-09-09T21:21:21.800Z,10.70
2023-09-09T21:24:22.790Z,10.82
2023-09-09T21:27:23.618Z,10.07
2023-09-09T21:30:27.669Z,10.95
2023-09-09T21:33:28.989Z,10.30
2023-09-09T21:36:30.026Z,11.07
2023-09-09T21:39:33.912Z,10.95
2023-09-09T21:42:34.915Z,10.88
2023-09-09T21:45:35.748Z,10.82
2023-09-09T21:48:36.841Z,12.27
2023-09-09T21:51:38.306Z,11.27
2023-09-09T21:54:39.133Z,11.73
2023-09-09T21:57:40.587Z,11.05
2023-09-09T22:00:42.152Z,11.63
2023-09-09T22:03:47.271Z,11.50
2023-09-09T22:06:49.118Z,11.32
2023-09-09T22:09:49.876Z,12.95
2023-09-09T22:12:51.143Z,13.00
2023-09-09T22:15:52.459Z,13.02
2023-09-09T22:18:53.705Z,12.73
2023-09-09T22:21:55.147Z,12.27
2023-09-09T22:24:56.380Z,11.63
2023-09-09T22:27:57.310Z,12.43
2023-09-09T22:30:58.539Z,12.95
2023-09-09T22:33:59.840Z,13.52
2023-09-09T22:37:00.878Z,12.80
2023-09-09T22:40:01.826Z,12.13
2023-09-09T22:43:03.869Z,12.77
2023-09-09T22:46:09.150Z,12.10
2023-09-09T22:49:10.244Z,11.90
2023-09-09T22:52:11.644Z,12.85
2023-09-09T22:55:12.750Z,12.18
2023-09-09T22:58:13.573Z,12.30
2023-09-09T23:01:18.173Z,12.68
2023-09-09T23:04:19.171Z,12.25
2023-09-09T23:07:21.397Z,12.68
2023-09-09T23:10:22.540Z,11.93
2023-09-09T23:13:23.732Z,12.60
2023-09-09T23:16:24.701Z,13.60
2023-09-09T23:19:25.925Z,13.70
2023-09-09T23:22:27.200Z,12.95
2023-09-09T23:25:28.715Z,12.55
2023-09-09T23:28:30.233Z,12.52
2023-09-09T23:31:34.061Z,12.40
2023-09-09T23:34:35.160Z,11.45
2023-09-09T23:37:37.120Z,12.30
2023-09-09T23:40:38.478Z,15.82
2023-09-09T23:43:40.092Z,16.70
2023-09-09T23:46:40.906Z,18.30
2023-09-09T23:49:42.515Z,18.13
2023-09-09T23:52:43.755Z,18.65
2023-09-09T23:55:44.958Z,16.45
2023-09-09T23:58:46.074Z,18.27
